createdAt,value
2018-12-29T00:01:45.570Z,19.00
2018-12-29T00:04:16.765Z,19.60
2018-12-29T00:06:48.463Z,18.37
2018-12-29T00:09:19.539Z,19.47
2018-12-29T00:11:50.958Z,18.90
2018-12-29T00:14:22.067Z,21.17
2018-12-29T00:16:53.310Z,17.87
2018-12-29T00:19:24.382Z,18.60
2018-12-29T00:21:55.646Z,18.60
2018-12-29T00:24:26.710Z,19.20
2018-12-29T00:26:57.962Z,18.60
2018-12-29T00:29:29.073Z,17.30
2018-12-29T00:32:00.264Z,17.23
2018-12-29T00:34:31.389Z,17.87
2018-12-29T00:37:02.585Z,19.87
2018-12-29T00:39:33.771Z,18.50
2018-12-29T00:42:05.184Z,17.00
2018-12-29T00:44:36.303Z,20.07
2018-12-29T00:47:07.552Z,19.13
2018-12-29T00:49:38.694Z,18.87
2018-12-29T00:52:09.885Z,20.13
2018-12-29T00:54:41.078Z,18.93
2018-12-29T00:57:12.481Z,19.70
2018-12-29T00:59:43.556Z,19.90
2018-12-29T01:02:17.009Z,19.40
2018-12-29T01:04:48.072Z,19.93
2018-12-29T01:07:19.498Z,20.60
2018-12-29T01:09:50.637Z,19.90
2018-12-29T01:12:21.890Z,20.73
2018-12-29T01:14:53.021Z,20.10
2018-12-29T01:17:24.205Z,18.87
2018-12-29T01:19:55.266Z,20.93
2018-12-29T01:22:26.599Z,19.03
2018-12-29T01:24:57.641Z,19.20
2018-12-29T01:27:28.970Z,20.70
2018-12-29T01:30:00.197Z,19.87
2018-12-29T01:32:31.372Z,19.50
2018-12-29T01:35:02.435Z,18.40
2018-12-29T01:37:34.932Z,19.20
2018-12-29T01:40:06.211Z,20.00
2018-12-29T01:42:37.560Z,21.63
2018-12-29T01:45:17.166Z,18.37
2018-12-29T01:47:42.757Z,21.13
2018-12-29T01:50:13.826Z,19.30
2018-12-29T01:52:45.161Z,20.87
2018-12-29T01:55:17.031Z,20.03
2018-12-29T01:57:48.250Z,20.33
2018-12-29T02:00:19.336Z,20.47
2018-12-29T02:02:50.790Z,19.77
2018-12-29T02:05:21.905Z,19.23
2018-12-29T02:07:53.351Z,20.43
2018-12-29T02:10:24.419Z,20.60
2018-12-29T02:12:55.756Z,19.90
2018-12-29T02:15:26.925Z,21.30
2018-12-29T02:17:58.141Z,20.67
2018-12-29T02:20:29.480Z,22.40
2018-12-29T02:23:00.926Z,20.47
2018-12-29T02:25:31.999Z,19.27
2018-12-29T02:28:03.248Z,20.70
2018-12-29T02:30:34.318Z,20.23
2018-12-29T02:33:05.624Z,20.60
2018-12-29T02:35:36.731Z,20.60
2018-12-29T02:38:08.023Z,20.43
2018-12-29T02:40:39.193Z,21.40
2018-12-29T02:43:10.614Z,19.57
2018-12-29T02:45:41.786Z,18.67
2018-12-29T02:48:13.059Z,19.60
2018-12-29T02:50:44.166Z,19.97
2018-12-29T02:53:15.340Z,21.00
2018-12-29T02:55:46.812Z,19.47
2018-12-29T02:58:18.113Z,20.40
2018-12-29T03:00:49.208Z,19.50
2018-12-29T03:03:20.462Z,19.07
2018-12-29T03:05:51.515Z,19.67
2018-12-29T03:08:22.954Z,17.90
2018-12-29T03:10:54.009Z,18.37
2018-12-29T03:13:25.230Z,19.93
2018-12-29T03:15:56.331Z,20.27
2018-12-29T03:18:27.557Z,19.67
2018-12-29T03:20:58.607Z,19.50
2018-12-29T03:23:29.910Z,19.40
2018-12-29T03:26:00.979Z,18.63
2018-12-29T03:28:33.750Z,19.73
2018-12-29T03:31:06.172Z,20.77
2018-12-29T03:33:37.486Z,20.10
2018-12-29T03:36:08.579Z,19.23
2018-12-29T03:38:39.860Z,18.20
2018-12-29T03:41:11.018Z,19.73
2018-12-29T03:43:42.247Z,19.80
2018-12-29T03:46:13.505Z,20.67
2018-12-29T03:48:44.838Z,20.07
2018-12-29T03:51:16.067Z,20.40
2018-12-29T03:53:47.627Z,20.57
2018-12-29T03:56:18.801Z,19.60
2018-12-29T03:58:50.051Z,20.40
2018-12-29T04:01:21.168Z,19.87
2018-12-29T04:03:52.515Z,19.97
2018-12-29T04:06:23.572Z,19.07
2018-12-29T04:09:41.018Z,17.70
2018-12-29T04:12:20.682Z,19.57
2018-12-29T04:14:53.403Z,19.20
2018-12-29T04:17:24.478Z,19.17
2018-12-29T04:19:55.972Z,18.73
2018-12-29T04:22:27.056Z,17.17
2018-12-29T04:24:58.580Z,19.20
2018-12-29T04:27:29.738Z,18.27
2018-12-29T04:30:00.940Z,18.90
2018-12-29T04:32:32.086Z,18.23
2018-12-29T04:35:03.684Z,19.47
2018-12-29T04:37:34.772Z,18.77
2018-12-29T04:40:06.206Z,18.20
2018-12-29T04:42:37.250Z,18.77
2018-12-29T04:45:08.502Z,19.90
2018-12-29T04:47:39.700Z,20.40
2018-12-29T04:50:10.984Z,20.10
2018-12-29T04:52:42.400Z,20.10
2018-12-29T04:55:13.854Z,20.27
2018-12-29T04:57:44.996Z,19.67
2018-12-29T05:00:16.370Z,21.07
2018-12-29T05:02:47.432Z,21.03
2018-12-29T05:05:18.739Z,19.57
2018-12-29T05:07:49.818Z,19.20
2018-12-29T05:10:21.336Z,20.73
2018-12-29T05:12:52.412Z,21.77
2018-12-29T05:15:23.680Z,20.97
2018-12-29T05:17:54.760Z,19.37
2018-12-29T05:20:26.054Z,20.43
2018-12-29T05:22:57.156Z,20.30
2018-12-29T05:25:28.452Z,20.03
2018-12-29T05:27:59.589Z,20.07
2018-12-29T05:30:30.988Z,19.70
2018-12-29T05:33:02.072Z,19.17
2018-12-29T05:35:33.578Z,20.60
2018-12-29T05:38:05.040Z,18.90
2018-12-29T05:40:36.300Z,20.20
2018-12-29T05:43:07.364Z,21.20
2018-12-29T05:45:38.642Z,20.00
2018-12-29T05:48:09.735Z,19.87
2018-12-29T05:50:41.021Z,20.20
2018-12-29T05:53:12.091Z,19.67
2018-12-29T05:55:43.387Z,19.47
2018-12-29T05:58:14.441Z,19.57
2018-12-29T06:00:47.199Z,19.97
2018-12-29T06:03:18.255Z,19.93
2018-12-29T06:05:49.545Z,19.90
2018-12-29T06:08:20.615Z,18.97
2018-12-29T06:10:51.976Z,18.93
2018-12-29T06:13:23.092Z,19.80
2018-12-29T06:15:54.271Z,20.13
2018-12-29T06:18:25.524Z,18.97
2018-12-29T06:20:56.814Z,19.73
2018-12-29T06:23:27.902Z,20.40
2018-12-29T06:25:59.290Z,20.90
2018-12-29T06:28:30.443Z,19.13
2018-12-29T06:31:01.804Z,20.93
2018-12-29T06:33:32.932Z,20.63
2018-12-29T06:36:04.118Z,20.07
2018-12-29T06:38:35.232Z,19.20
2018-12-29T06:41:06.496Z,19.17
2018-12-29T06:43:37.552Z,20.10
2018-12-29T06:46:08.708Z,22.07
2018-12-29T06:48:39.832Z,20.37
2018-12-29T06:51:11.239Z,21.53
2018-12-29T06:53:42.360Z,20.50
2018-12-29T06:56:14.765Z,20.37
2018-12-29T06:58:45.841Z,20.43
2018-12-29T07:01:17.252Z,20.77
2018-12-29T07:03:48.689Z,20.53
2018-12-29T07:06:19.898Z,20.40
2018-12-29T07:08:53.994Z,20.33
2018-12-29T07:11:25.456Z,20.13
2018-12-29T07:13:56.525Z,19.63
2018-12-29T07:16:27.917Z,21.00
2018-12-29T07:18:59.907Z,20.87
2018-12-29T07:21:31.186Z,21.87
2018-12-29T07:24:02.282Z,19.03
2018-12-29T07:26:33.561Z,19.53
2018-12-29T07:29:04.655Z,20.33
2018-12-29T07:31:35.806Z,19.77
2018-12-29T07:34:06.927Z,19.93
2018-12-29T07:36:38.204Z,19.70
2018-12-29T07:39:10.600Z,20.07
2018-12-29T07:41:41.765Z,20.80
2018-12-29T07:44:12.878Z,20.93
2018-12-29T07:46:49.578Z,20.03
2018-12-29T07:49:16.852Z,21.30
2018-12-29T07:51:48.275Z,20.60
2018-12-29T07:54:19.345Z,21.70
2018-12-29T07:56:50.628Z,21.47
2018-12-29T07:59:21.700Z,21.03
2018-12-29T08:01:53.018Z,20.37
2018-12-29T08:04:25.336Z,22.20
2018-12-29T08:06:56.638Z,20.83
2018-12-29T08:09:27.809Z,19.30
2018-12-29T08:11:59.060Z,21.30
2018-12-29T08:14:30.221Z,21.60
2018-12-29T08:17:01.379Z,22.37
2018-12-29T08:19:34.294Z,20.23
2018-12-29T08:22:05.413Z,21.20
2018-12-29T08:24:36.821Z,19.43
2018-12-29T08:27:07.922Z,20.33
2018-12-29T08:29:39.237Z,21.20
2018-12-29T08:32:10.376Z,21.80
2018-12-29T08:34:41.769Z,20.83
2018-12-29T08:37:12.895Z,23.13
2018-12-29T08:39:44.374Z,22.27
2018-12-29T08:42:15.498Z,21.40
2018-12-29T08:44:46.657Z,21.63
2018-12-29T08:47:17.815Z,21.50
2018-12-29T08:49:49.046Z,20.83
2018-12-29T08:52:20.209Z,19.83
2018-12-29T08:54:51.666Z,21.87
2018-12-29T08:57:22.751Z,21.23
2018-12-29T08:59:54.127Z,20.77
2018-12-29T09:02:26.607Z,20.70
2018-12-29T09:04:58.296Z,21.63
2018-12-29T09:07:29.403Z,21.33
2018-12-29T09:10:00.610Z,20.77
2018-12-29T09:12:31.793Z,21.33
2018-12-29T09:15:03.066Z,22.80
2018-12-29T09:17:35.516Z,23.27
2018-12-29T09:20:07.325Z,23.30
2018-12-29T09:22:39.727Z,23.70
2018-12-29T09:25:11.149Z,23.53
2018-12-29T09:27:43.789Z,22.50
2018-12-29T09:30:15.052Z,22.17
2018-12-29T09:32:46.207Z,22.90
2018-12-29T09:35:17.588Z,22.63
2018-12-29T09:37:48.745Z,24.07
2018-12-29T09:40:20.092Z,23.80
2018-12-29T09:42:51.881Z,23.57
2018-12-29T09:45:23.377Z,23.37
2018-12-29T09:47:54.587Z,21.80
2018-12-29T09:50:25.981Z,23.10
2018-12-29T09:52:58.738Z,21.20
2018-12-29T09:55:32.299Z,21.93
2018-12-29T09:58:03.435Z,22.10
2018-12-29T10:00:34.788Z,19.93
2018-12-29T10:03:05.952Z,21.43
2018-12-29T10:05:37.421Z,20.80
2018-12-29T10:08:08.623Z,21.30
2018-12-29T10:10:40.021Z,21.73
2018-12-29T10:13:11.286Z,22.00
2018-12-29T10:15:43.431Z,21.70
2018-12-29T10:18:14.516Z,23.30
2018-12-29T10:20:45.753Z,23.53
2018-12-29T10:23:16.967Z,22.37
2018-12-29T10:25:48.438Z,22.00
2018-12-29T10:28:19.611Z,23.17
2018-12-29T10:30:50.836Z,22.30
2018-12-29T10:33:21.953Z,22.43
2018-12-29T10:35:53.234Z,22.73
2018-12-29T10:38:24.440Z,23.67
2018-12-29T10:40:55.708Z,21.17
2018-12-29T10:43:26.884Z,21.87
2018-12-29T10:45:58.198Z,21.37
2018-12-29T10:48:29.355Z,22.70
2018-12-29T10:51:01.274Z,22.60
2018-12-29T10:53:33.724Z,23.27
2018-12-29T10:56:05.318Z,22.07
2018-12-29T10:58:36.793Z,22.00
2018-12-29T11:01:08.110Z,22.70
2018-12-29T11:03:39.226Z,22.40
2018-12-29T11:06:10.429Z,22.10
2018-12-29T11:08:41.545Z,21.90
2018-12-29T11:11:12.787Z,22.33
2018-12-29T11:13:44.144Z,21.40
2018-12-29T11:16:20.061Z,21.40
2018-12-29T11:18:51.200Z,23.10
2018-12-29T11:21:22.392Z,22.33
2018-12-29T11:23:53.622Z,22.97
2018-12-29T11:26:24.813Z,21.93
2018-12-29T11:28:56.002Z,23.10
2018-12-29T11:31:27.193Z,21.50
2018-12-29T11:33:58.296Z,20.90
2018-12-29T11:36:29.639Z,22.10
2018-12-29T11:39:00.847Z,21.43
2018-12-29T11:41:32.875Z,21.30
2018-12-29T11:44:05.224Z,20.17
2018-12-29T11:46:36.440Z,20.80
2018-12-29T11:49:07.748Z,22.60
2018-12-29T11:51:39.088Z,26.27
2018-12-29T11:54:11.561Z,21.23
2018-12-29T11:56:43.129Z,22.53
2018-12-29T11:59:14.360Z,21.93
2018-12-29T12:01:45.876Z,23.67
2018-12-29T12:04:17.150Z,20.93
2018-12-29T12:06:48.369Z,20.23
2018-12-29T12:09:19.652Z,20.27
2018-12-29T12:11:50.983Z,19.93
2018-12-29T12:14:22.285Z,18.90
2018-12-29T12:16:53.484Z,20.80
2018-12-29T12:19:24.742Z,21.70
2018-12-29T12:21:56.022Z,21.17
2018-12-29T12:24:27.100Z,20.73
2018-12-29T12:26:58.418Z,21.70
2018-12-29T12:29:29.520Z,21.83
2018-12-29T12:32:01.078Z,21.87
2018-12-29T12:34:32.162Z,21.17
2018-12-29T12:37:03.621Z,19.97
2018-12-29T12:39:46.567Z,20.53
2018-12-29T12:42:17.994Z,20.97
2018-12-29T12:44:49.201Z,20.57
2018-12-29T12:47:20.697Z,19.97
2018-12-29T12:49:51.861Z,20.47
2018-12-29T12:52:23.183Z,20.40
2018-12-29T12:54:55.560Z,19.67
2018-12-29T12:57:26.831Z,19.83
2018-12-29T12:59:58.489Z,21.67
2018-12-29T13:02:30.046Z,20.60
2018-12-29T13:05:01.106Z,20.10
2018-12-29T13:07:32.503Z,20.20
2018-12-29T13:10:03.562Z,20.00
2018-12-29T13:12:35.114Z,19.00
2018-12-29T13:15:07.612Z,18.67
2018-12-29T13:17:38.850Z,20.37
2018-12-29T13:20:10.042Z,20.43
2018-12-29T13:22:42.592Z,20.30
2018-12-29T13:25:14.044Z,20.37
2018-12-29T13:27:45.325Z,25.27
2018-12-29T13:30:16.534Z,21.07
2018-12-29T13:32:47.903Z,21.40
2018-12-29T13:35:19.910Z,20.17
2018-12-29T13:37:51.230Z,19.87
2018-12-29T13:40:22.336Z,17.60
2018-12-29T13:42:53.544Z,18.23
2018-12-29T13:45:24.672Z,19.40
2018-12-29T13:47:55.901Z,17.83
2018-12-29T13:50:26.960Z,17.87
2018-12-29T13:52:58.275Z,16.60
2018-12-29T13:55:29.346Z,19.40
2018-12-29T13:58:00.566Z,18.57
2018-12-29T14:00:31.846Z,19.07
2018-12-29T14:03:03.018Z,17.87
2018-12-29T14:05:35.100Z,18.57
2018-12-29T14:08:06.365Z,18.20
2018-12-29T14:10:37.462Z,18.50
2018-12-29T14:13:08.688Z,18.60
2018-12-29T14:15:39.957Z,17.67
2018-12-29T14:18:11.454Z,18.80
2018-12-29T14:20:42.581Z,17.93
2018-12-29T14:23:13.801Z,20.00
2018-12-29T14:25:45.095Z,18.30
2018-12-29T14:28:16.433Z,19.20
2018-12-29T14:30:48.595Z,18.57
2018-12-29T14:33:19.840Z,19.03
2018-12-29T14:35:51.393Z,19.00
2018-12-29T14:38:22.704Z,19.47
2018-12-29T14:40:53.850Z,19.23
2018-12-29T14:43:25.271Z,20.10
2018-12-29T14:45:56.622Z,18.90
2018-12-29T14:48:27.944Z,19.80
2018-12-29T14:50:58.996Z,18.67
2018-12-29T14:53:30.439Z,18.87
2018-12-29T14:56:01.916Z,18.93
2018-12-29T14:58:33.256Z,18.80
2018-12-29T15:01:04.384Z,19.40
2018-12-29T15:03:35.672Z,19.40
2018-12-29T15:06:06.739Z,22.27
2018-12-29T15:08:38.005Z,19.47
2018-12-29T15:11:09.192Z,19.20
2018-12-29T15:13:40.491Z,18.67
2018-12-29T15:16:11.909Z,20.97
2018-12-29T15:18:43.899Z,20.83
2018-12-29T15:21:15.353Z,19.93
2018-12-29T15:23:46.799Z,18.43
2018-12-29T15:26:18.167Z,21.97
2018-12-29T15:28:49.623Z,19.80
2018-12-29T15:31:20.817Z,20.77
2018-12-29T15:33:52.150Z,19.87
2018-12-29T15:36:35.194Z,18.70
2018-12-29T15:39:07.746Z,21.50
2018-12-29T15:41:38.939Z,21.47
2018-12-29T15:44:10.231Z,20.50
2018-12-29T15:46:41.404Z,20.00
2018-12-29T15:49:12.912Z,23.97
2018-12-29T15:51:44.147Z,23.47
2018-12-29T15:54:15.589Z,20.17
2018-12-29T15:56:46.756Z,19.63
2018-12-29T15:59:18.011Z,20.83
2018-12-29T16:01:49.180Z,21.37
2018-12-29T16:04:20.427Z,22.50
2018-12-29T16:06:52.931Z,21.60
2018-12-29T16:09:24.185Z,21.90
2018-12-29T16:11:55.785Z,20.67
2018-12-29T16:14:27.207Z,20.13
2018-12-29T16:16:58.905Z,22.27
2018-12-29T16:19:30.305Z,22.37
2018-12-29T16:22:01.475Z,19.80
2018-12-29T16:24:32.850Z,19.07
2018-12-29T16:27:04.478Z,22.10
2018-12-29T16:29:35.809Z,19.83
2018-12-29T16:32:06.988Z,20.87
2018-12-29T16:34:38.402Z,21.73
2018-12-29T16:37:09.621Z,23.17
2018-12-29T16:39:41.195Z,22.60
2018-12-29T16:42:12.353Z,23.20
2018-12-29T16:44:43.605Z,22.10
2018-12-29T16:47:14.737Z,23.30
2018-12-29T16:49:46.094Z,22.00
2018-12-29T16:52:17.849Z,22.13
2018-12-29T16:54:49.251Z,21.10
2018-12-29T16:57:20.369Z,21.50
2018-12-29T16:59:51.669Z,21.10
2018-12-29T17:02:23.153Z,21.57
2018-12-29T17:04:54.466Z,23.37
2018-12-29T17:07:25.680Z,22.77
2018-12-29T17:09:57.053Z,22.70
2018-12-29T17:12:28.197Z,22.93
2018-12-29T17:15:00.790Z,24.70
2018-12-29T17:17:33.487Z,25.07
2018-12-29T17:20:05.069Z,24.30
2018-12-29T17:22:36.730Z,23.40
2018-12-29T17:25:08.011Z,23.80
2018-12-29T17:27:39.195Z,23.97
2018-12-29T17:30:10.593Z,22.80
2018-12-29T17:32:42.197Z,23.43
2018-12-29T17:35:13.611Z,23.47
2018-12-29T17:37:44.883Z,23.53
2018-12-29T17:40:16.315Z,24.67
2018-12-29T17:42:47.481Z,23.50
2018-12-29T17:45:18.709Z,23.10
2018-12-29T17:47:50.107Z,22.77
2018-12-29T17:50:21.505Z,22.73
2018-12-29T17:52:52.769Z,22.97
2018-12-29T17:55:28.077Z,23.43
2018-12-29T17:57:59.852Z,22.87
2018-12-29T18:00:31.794Z,24.60
2018-12-29T18:03:03.035Z,23.87
2018-12-29T18:05:34.391Z,23.23
2018-12-29T18:08:05.599Z,23.07
2018-12-29T18:10:36.983Z,25.57
2018-12-29T18:13:08.292Z,24.87
2018-12-29T18:15:39.718Z,23.80
2018-12-29T18:18:11.003Z,23.90
2018-12-29T18:20:42.980Z,24.23
2018-12-29T18:23:14.186Z,24.10
2018-12-29T18:25:45.475Z,24.73
2018-12-29T18:28:16.673Z,25.13
2018-12-29T18:30:59.245Z,24.03
2018-12-29T18:33:37.081Z,24.93
2018-12-29T18:36:03.275Z,25.27
2018-12-29T18:38:34.403Z,24.83
2018-12-29T18:41:05.869Z,24.67
2018-12-29T18:43:37.349Z,25.10
2018-12-29T18:46:08.611Z,25.13
2018-12-29T18:48:40.002Z,25.03
2018-12-29T18:51:11.349Z,26.60
2018-12-29T18:53:43.035Z,25.43
2018-12-29T18:56:14.283Z,25.43
2018-12-29T18:58:45.504Z,25.27
2018-12-29T19:01:16.914Z,26.60
2018-12-29T19:03:48.205Z,26.03
2018-12-29T19:06:20.623Z,25.40
2018-12-29T19:08:52.372Z,24.40
2018-12-29T19:11:23.587Z,25.33
2018-12-29T19:13:54.744Z,27.57
2018-12-29T19:16:25.997Z,24.90
2018-12-29T19:18:57.261Z,24.90
2018-12-29T19:21:28.570Z,27.17
2018-12-29T19:24:00.347Z,26.87
2018-12-29T19:26:31.997Z,26.50
2018-12-29T19:29:03.363Z,25.97
2018-12-29T19:31:34.874Z,26.67
2018-12-29T19:34:06.552Z,26.43
2018-12-29T19:36:37.792Z,25.70
2018-12-29T19:39:09.286Z,26.87
2018-12-29T19:41:46.600Z,26.10
2018-12-29T19:44:13.419Z,27.85
2018-12-29T19:46:45.140Z,28.40
2018-12-29T19:49:16.531Z,28.00
2018-12-29T19:51:47.840Z,25.70
2018-12-29T19:54:19.520Z,27.77
2018-12-29T19:56:50.799Z,28.43
2018-12-29T19:59:22.376Z,27.77
2018-12-29T20:01:53.752Z,26.73
2018-12-29T20:04:25.303Z,25.90
2018-12-29T20:06:57.211Z,27.00
2018-12-29T20:09:28.411Z,26.83
2018-12-29T20:11:59.914Z,26.50
2018-12-29T20:14:31.136Z,29.40
2018-12-29T20:17:02.537Z,26.73
2018-12-29T20:19:33.962Z,26.90
2018-12-29T20:22:05.255Z,25.73
2018-12-29T20:24:36.488Z,26.07
2018-12-29T20:27:07.814Z,26.47
2018-12-29T20:29:38.996Z,26.87
2018-12-29T20:32:11.325Z,27.90
2018-12-29T20:34:42.468Z,26.67
2018-12-29T20:37:13.800Z,27.63
2018-12-29T20:39:44.928Z,26.93
2018-12-29T20:42:16.394Z,27.23
2018-12-29T20:44:47.775Z,26.00
2018-12-29T20:47:19.184Z,27.07
2018-12-29T20:49:50.424Z,28.30
2018-12-29T20:52:21.672Z,27.53
2018-12-29T20:54:53.036Z,27.73
2018-12-29T20:57:24.309Z,25.17
2018-12-29T20:59:55.711Z,25.80
2018-12-29T21:02:27.040Z,25.50
2018-12-29T21:05:01.318Z,26.60
2018-12-29T21:07:33.360Z,26.80
2018-12-29T21:10:04.636Z,26.97
2018-12-29T21:12:35.872Z,29.10
2018-12-29T21:15:07.350Z,27.50
2018-12-29T21:17:41.186Z,26.00
2018-12-29T21:20:17.271Z,26.17
2018-12-29T21:22:45.496Z,26.67
2018-12-29T21:25:16.665Z,27.90
2018-12-29T21:27:48.163Z,27.00
2018-12-29T21:30:19.238Z,28.13
2018-12-29T21:32:50.586Z,26.07
2018-12-29T21:35:21.745Z,27.77
2018-12-29T21:37:53.262Z,27.07
2018-12-29T21:40:24.948Z,28.52
2018-12-29T21:42:56.572Z,25.60
2018-12-29T21:45:27.731Z,26.20
2018-12-29T21:47:59.120Z,28.57
2018-12-29T21:50:31.264Z,27.23
2018-12-29T21:53:02.820Z,28.27
2018-12-29T21:55:33.912Z,28.10
2018-12-29T21:58:05.192Z,27.50
2018-12-29T22:00:36.467Z,28.43
2018-12-29T22:03:07.680Z,28.60
2018-12-29T22:05:39.368Z,28.10
2018-12-29T22:08:10.942Z,28.87
2018-12-29T22:10:42.096Z,25.63
2018-12-29T22:13:13.384Z,28.17
2018-12-29T22:15:44.512Z,28.13
2018-12-29T22:18:15.846Z,28.97
2018-12-29T22:20:47.153Z,29.10
2018-12-29T22:23:18.462Z,28.73
2018-12-29T22:25:49.616Z,29.80
2018-12-29T22:28:21.093Z,28.20
2018-12-29T22:30:52.234Z,29.03
2018-12-29T22:33:23.452Z,28.57
2018-12-29T22:35:56.172Z,28.10
2018-12-29T22:38:27.448Z,28.33
2018-12-29T22:40:58.594Z,29.03
2018-12-29T22:43:29.883Z,27.33
2018-12-29T22:46:01.235Z,26.60
2018-12-29T22:48:32.748Z,26.53
2018-12-29T22:51:03.909Z,27.40
2018-12-29T22:53:35.251Z,27.70
2018-12-29T22:56:06.455Z,28.37
2018-12-29T22:58:37.901Z,29.70
2018-12-29T23:01:09.083Z,29.43
2018-12-29T23:03:40.633Z,26.87
2018-12-29T23:06:11.877Z,29.30
2018-12-29T23:08:43.383Z,27.23
2018-12-29T23:11:14.548Z,25.83
2018-12-29T23:13:45.873Z,27.10
2018-12-29T23:16:17.055Z,27.03
2018-12-29T23:18:50.405Z,26.27
2018-12-29T23:21:21.784Z,27.30
2018-12-29T23:23:53.160Z,27.97
2018-12-29T23:26:24.432Z,28.27
2018-12-29T23:28:57.386Z,27.80
2018-12-29T23:31:28.587Z,28.90
2018-12-29T23:33:59.957Z,27.50
2018-12-29T23:36:31.193Z,27.17
2018-12-29T23:39:02.849Z,27.30
2018-12-29T23:41:35.657Z,29.23
2018-12-29T23:44:07.167Z,29.80
2018-12-29T23:46:38.298Z,28.17
2018-12-29T23:49:11.947Z,28.10
2018-12-29T23:51:43.085Z,31.93
2018-12-29T23:54:14.413Z,30.17
2018-12-29T23:56:45.904Z,29.80
2018-12-29T23:59:17.175Z,29.23
